Airfield :
LOGIN :

Register | Disclaimer

   EN    FR    IT 

 










Legend :    VFR   Marginal VFR   IFR   Intensive IFR   Very Intensive IFR
Visi :
Ceiling :
>= 8 km
>= 3000ft
5 to 8 km
1000 to 3000 ft
1500m to 5 km
500 to 1000 ft
800 to 1500m
200 to 500 ft
< 800m
< 200 ft
Symbols :   Thunderstorms  Fog  Heavy snow  Heavy precipitations  Wind > 20 kt
SIGMETs :     Misc.  Thunderstorms  Icing  Turbulence  Mountain Waves  Volcanic Ashes







- Airport Elevation : 2595 ft
- IATA code : SLM


LESA - Salamanca Matacan

CURRENT METAR :
  • 181800Z 31005KT 280V340 9999 BKN045 11/04 Q1017

EXPIRED METARs :
  • 181730Z VRB02KT 9999 FEW045 12/03 Q1017
  • 181700Z VRB02KT CAVOK 13/02 Q1017
  • 181630Z 24003KT 170V280 CAVOK 13/02 Q1017
  • 181600Z VRB02KT CAVOK 13/01 Q1016
  • 181530Z VRB01KT CAVOK 13/01 Q1016

TAF TAF LESA
Valid from the 18 at 18:00 until the 19 at 18:00 UTC


181700Z 1818/1918 VRB05KT CAVOK TX13/1915Z TNM01/1906Z
PROB40
TEMPO 1903/1910 3000 BR BKN006
PROB30
TEMPO 1904/1910 0100 FG VV001
No reported NOTAMs for that airfield.
1 SIGMET reported for the Madrid FIR (LECM) :
 
Severe turbulence
LECM SIGMET 7 VALID 181721/182100 LEVA
LECM MADRID FIR/UIR SEV TURB OBS AT 1721Z WI N4428 W00513 - N4157 W00648 - N4202 W00901 - N4454 W00738 - N4428 W00513 FL200/300 STNR NC=



MET'MAP, your aeronautical weather chart ! - Copyright ORBIFLY December 2007 - Disclaimer

ORBIFLY MET'MAP TEAM :

Programming & Development : Alexandra Zaïnal
Concept & Development : Baudouin d'Aumeries
Co-Development & Prog : Marc-Olivier Méhu
Technical & hardware support : Manuel Goepfert

Contact : metmap@orbifly.com




SOURCES & CREDITS :

   NOAA